sensor_id;sensor_type;location;lat;lon;timestamp;P1;durP1;ratioP1;P2;durP2;ratioP2
41705;SDS011;27385;51.096;17.190;2022-08-21T00:01:07;14.70;;;5.70;;
41705;SDS011;27385;51.096;17.190;2022-08-21T00:03:43;14.90;;;5.30;;
41705;SDS011;27385;51.096;17.190;2022-08-21T00:06:15;13.80;;;5.30;;
41705;SDS011;27385;51.096;17.190;2022-08-21T00:08:47;12.00;;;4.20;;
41705;SDS011;27385;51.096;17.190;2022-08-21T00:11:19;10.60;;;4.90;;
41705;SDS011;27385;51.096;17.190;2022-08-21T00:13:51;11.90;;;4.90;;
41705;SDS011;27385;51.096;17.190;2022-08-21T00:16:23;10.00;;;4.30;;
41705;SDS011;27385;51.096;17.190;2022-08-21T00:18:54;10.60;;;4.90;;
41705;SDS011;27385;51.096;17.190;2022-08-21T00:21:27;11.10;;;5.30;;
41705;SDS011;27385;51.096;17.190;2022-08-21T00:23:59;12.30;;;5.20;;
41705;SDS011;27385;51.096;17.190;2022-08-21T00:26:31;13.40;;;5.90;;
41705;SDS011;27385;51.096;17.190;2022-08-21T00:29:03;14.00;;;5.80;;
41705;SDS011;27385;51.096;17.190;2022-08-21T00:31:35;16.30;;;6.00;;
41705;SDS011;27385;51.096;17.190;2022-08-21T00:34:07;16.40;;;6.20;;
41705;SDS011;27385;51.096;17.190;2022-08-21T00:36:39;13.60;;;6.60;;
41705;SDS011;27385;51.096;17.190;2022-08-21T00:39:11;17.50;;;7.40;;
41705;SDS011;27385;51.096;17.190;2022-08-21T00:41:43;14.00;;;6.40;;
41705;SDS011;27385;51.096;17.190;2022-08-21T00:44:14;13.30;;;6.20;;
41705;SDS011;27385;51.096;17.190;2022-08-21T00:46:46;13.70;;;6.40;;
41705;SDS011;27385;51.096;17.190;2022-08-21T00:49:18;15.90;;;6.40;;
41705;SDS011;27385;51.096;17.190;2022-08-21T00:51:50;14.10;;;6.00;;
41705;SDS011;27385;51.096;17.190;2022-08-21T00:54:25;13.60;;;6.80;;
41705;SDS011;27385;51.096;17.190;2022-08-21T00:57:01;13.90;;;6.60;;
41705;SDS011;27385;51.096;17.190;2022-08-21T00:59:37;14.50;;;6.20;;
41705;SDS011;27385;51.096;17.190;2022-08-21T01:02:09;11.20;;;5.80;;
41705;SDS011;27385;51.096;17.190;2022-08-21T01:04:42;16.00;;;6.50;;
41705;SDS011;27385;51.096;17.190;2022-08-21T01:07:14;13.40;;;5.80;;
41705;SDS011;27385;51.096;17.190;2022-08-21T01:09:46;11.90;;;5.30;;
41705;SDS011;27385;51.096;17.190;2022-08-21T01:12:19;15.40;;;6.60;;
41705;SDS011;27385;51.096;17.190;2022-08-21T01:14:52;12.80;;;6.00;;
41705;SDS011;27385;51.096;17.190;2022-08-21T01:17:24;13.50;;;5.50;;
41705;SDS011;27385;51.096;17.190;2022-08-21T01:19:58;11.50;;;5.30;;
41705;SDS011;27385;51.096;17.190;2022-08-21T01:22:31;12.90;;;4.90;;
41705;SDS011;27385;51.096;17.190;2022-08-21T01:25:04;11.10;;;4.60;;
41705;SDS011;27385;51.096;17.190;2022-08-21T01:27:37;10.10;;;4.80;;
41705;SDS011;27385;51.096;17.190;2022-08-21T01:30:11;13.20;;;4.60;;
41705;SDS011;27385;51.096;17.190;2022-08-21T01:32:45;11.30;;;4.50;;
41705;SDS011;27385;51.096;17.190;2022-08-21T01:35:19;11.60;;;4.50;;
41705;SDS011;27385;51.096;17.190;2022-08-21T01:37:52;11.70;;;3.90;;
41705;SDS011;27385;51.096;17.190;2022-08-21T01:40:24;10.20;;;3.70;;
41705;SDS011;27385;51.096;17.190;2022-08-21T01:42:56;11.50;;;3.80;;
41705;SDS011;27385;51.096;17.190;2022-08-21T01:45:28;11.00;;;3.90;;
41705;SDS011;27385;51.096;17.190;2022-08-21T01:48:00;9.30;;;3.70;;
41705;SDS011;27385;51.096;17.190;2022-08-21T01:50:32;8.10;;;3.20;;
41705;SDS011;27385;51.096;17.190;2022-08-21T01:53:05;9.30;;;3.70;;
41705;SDS011;27385;51.096;17.190;2022-08-21T01:55:37;10.40;;;4.00;;
41705;SDS011;27385;51.096;17.190;2022-08-21T01:58:11;9.90;;;3.60;;
41705;SDS011;27385;51.096;17.190;2022-08-21T02:00:42;9.90;;;3.80;;
41705;SDS011;27385;51.096;17.190;2022-08-21T02:03:14;9.10;;;3.70;;
41705;SDS011;27385;51.096;17.190;2022-08-21T02:05:46;9.80;;;3.20;;
41705;SDS011;27385;51.096;17.190;2022-08-21T02:08:17;7.90;;;3.20;;
41705;SDS011;27385;51.096;17.190;2022-08-21T02:10:53;8.90;;;3.10;;
41705;SDS011;27385;51.096;17.190;2022-08-21T02:13:26;7.40;;;2.60;;
41705;SDS011;27385;51.096;17.190;2022-08-21T02:15:58;4.90;;;1.80;;
41705;SDS011;27385;51.096;17.190;2022-08-21T02:18:30;6.70;;;1.70;;
41705;SDS011;27385;51.096;17.190;2022-08-21T02:21:02;8.10;;;2.40;;
41705;SDS011;27385;51.096;17.190;2022-08-21T02:23:34;6.80;;;1.80;;
41705;SDS011;27385;51.096;17.190;2022-08-21T02:26:07;6.10;;;2.00;;
41705;SDS011;27385;51.096;17.190;2022-08-21T02:28:38;7.90;;;2.40;;
41705;SDS011;27385;51.096;17.190;2022-08-21T02:31:10;6.90;;;2.00;;
41705;SDS011;27385;51.096;17.190;2022-08-21T02:33:44;8.20;;;2.50;;
41705;SDS011;27385;51.096;17.190;2022-08-21T02:36:15;7.70;;;1.70;;
41705;SDS011;27385;51.096;17.190;2022-08-21T02:38:48;5.50;;;1.70;;
41705;SDS011;27385;51.096;17.190;2022-08-21T02:41:20;4.80;;;1.40;;
41705;SDS011;27385;51.096;17.190;2022-08-21T02:43:53;7.30;;;1.80;;
41705;SDS011;27385;51.096;17.190;2022-08-21T02:46:25;6.20;;;1.80;;
41705;SDS011;27385;51.096;17.190;2022-08-21T02:48:59;4.00;;;1.30;;
41705;SDS011;27385;51.096;17.190;2022-08-21T02:51:31;5.90;;;1.20;;
41705;SDS011;27385;51.096;17.190;2022-08-21T02:54:02;4.80;;;1.30;;
41705;SDS011;27385;51.096;17.190;2022-08-21T02:56:34;4.10;;;1.00;;
41705;SDS011;27385;51.096;17.190;2022-08-21T02:59:05;5.40;;;1.00;;
41705;SDS011;27385;51.096;17.190;2022-08-21T03:01:37;3.40;;;0.90;;
41705;SDS011;27385;51.096;17.190;2022-08-21T03:04:08;4.90;;;1.00;;
41705;SDS011;27385;51.096;17.190;2022-08-21T03:06:40;3.40;;;1.10;;
41705;SDS011;27385;51.096;17.190;2022-08-21T03:09:12;2.60;;;0.90;;
41705;SDS011;27385;51.096;17.190;2022-08-21T03:11:43;4.20;;;1.00;;
41705;SDS011;27385;51.096;17.190;2022-08-21T03:14:15;2.80;;;0.90;;
41705;SDS011;27385;51.096;17.190;2022-08-21T03:16:47;2.50;;;0.70;;
41705;SDS011;27385;51.096;17.190;2022-08-21T03:19:18;3.00;;;0.80;;
41705;SDS011;27385;51.096;17.190;2022-08-21T03:21:49;2.50;;;0.70;;
41705;SDS011;27385;51.096;17.190;2022-08-21T03:24:21;3.90;;;0.70;;
41705;SDS011;27385;51.096;17.190;2022-08-21T03:26:53;3.00;;;0.70;;
41705;SDS011;27385;51.096;17.190;2022-08-21T03:29:24;1.50;;;0.50;;
41705;SDS011;27385;51.096;17.190;2022-08-21T03:31:56;2.90;;;0.80;;
41705;SDS011;27385;51.096;17.190;2022-08-21T03:34:27;2.60;;;0.70;;
41705;SDS011;27385;51.096;17.190;2022-08-21T03:36:59;3.50;;;1.00;;
41705;SDS011;27385;51.096;17.190;2022-08-21T03:39:31;4.40;;;0.90;;
41705;SDS011;27385;51.096;17.190;2022-08-21T03:42:03;2.40;;;0.70;;
41705;SDS011;27385;51.096;17.190;2022-08-21T03:44:35;2.60;;;0.80;;
41705;SDS011;27385;51.096;17.190;2022-08-21T03:47:07;3.70;;;0.70;;
41705;SDS011;27385;51.096;17.190;2022-08-21T03:49:39;4.00;;;0.80;;
41705;SDS011;27385;51.096;17.190;2022-08-21T03:52:11;3.20;;;1.00;;
41705;SDS011;27385;51.096;17.190;2022-08-21T03:54:44;3.20;;;1.00;;
41705;SDS011;27385;51.096;17.190;2022-08-21T03:57:16;4.80;;;1.20;;
41705;SDS011;27385;51.096;17.190;2022-08-21T03:59:49;4.10;;;1.30;;
41705;SDS011;27385;51.096;17.190;2022-08-21T04:02:21;5.10;;;1.10;;
41705;SDS011;27385;51.096;17.190;2022-08-21T04:04:53;4.90;;;1.20;;
41705;SDS011;27385;51.096;17.190;2022-08-21T04:07:24;4.40;;;1.20;;
41705;SDS011;27385;51.096;17.190;2022-08-21T04:09:56;3.80;;;1.00;;
41705;SDS011;27385;51.096;17.190;2022-08-21T04:12:27;5.90;;;1.40;;
41705;SDS011;27385;51.096;17.190;2022-08-21T04:15:00;3.10;;;1.00;;
41705;SDS011;27385;51.096;17.190;2022-08-21T04:17:32;3.70;;;1.20;;
41705;SDS011;27385;51.096;17.190;2022-08-21T04:20:04;6.60;;;1.20;;
41705;SDS011;27385;51.096;17.190;2022-08-21T04:22:37;3.50;;;1.10;;
41705;SDS011;27385;51.096;17.190;2022-08-21T04:25:10;3.40;;;1.00;;
41705;SDS011;27385;51.096;17.190;2022-08-21T04:27:42;5.10;;;1.20;;
41705;SDS011;27385;51.096;17.190;2022-08-21T04:30:15;4.70;;;1.10;;
41705;SDS011;27385;51.096;17.190;2022-08-21T04:32:48;3.30;;;1.20;;
41705;SDS011;27385;51.096;17.190;2022-08-21T04:35:21;3.30;;;1.10;;
41705;SDS011;27385;51.096;17.190;2022-08-21T04:37:53;2.70;;;0.90;;
41705;SDS011;27385;51.096;17.190;2022-08-21T04:40:26;3.90;;;1.10;;
41705;SDS011;27385;51.096;17.190;2022-08-21T04:43:00;3.70;;;1.10;;
41705;SDS011;27385;51.096;17.190;2022-08-21T04:45:37;3.50;;;1.00;;
41705;SDS011;27385;51.096;17.190;2022-08-21T04:48:12;3.30;;;1.00;;
41705;SDS011;27385;51.096;17.190;2022-08-21T04:50:48;5.20;;;1.10;;
41705;SDS011;27385;51.096;17.190;2022-08-21T04:53:26;3.30;;;1.10;;
41705;SDS011;27385;51.096;17.190;2022-08-21T04:56:04;2.80;;;0.90;;
41705;SDS011;27385;51.096;17.190;2022-08-21T04:58:39;4.40;;;1.10;;
41705;SDS011;27385;51.096;17.190;2022-08-21T05:01:12;4.10;;;1.10;;
41705;SDS011;27385;51.096;17.190;2022-08-21T05:03:46;4.90;;;1.00;;
41705;SDS011;27385;51.096;17.190;2022-08-21T05:06:20;3.70;;;1.10;;
41705;SDS011;27385;51.096;17.190;2022-08-21T05:08:53;4.80;;;1.00;;
41705;SDS011;27385;51.096;17.190;2022-08-21T05:11:27;3.30;;;1.00;;
41705;SDS011;27385;51.096;17.190;2022-08-21T05:13:59;3.70;;;1.10;;
41705;SDS011;27385;51.096;17.190;2022-08-21T05:16:31;3.70;;;1.00;;
41705;SDS011;27385;51.096;17.190;2022-08-21T05:19:03;2.60;;;0.80;;
41705;SDS011;27385;51.096;17.190;2022-08-21T05:21:35;2.60;;;1.00;;
41705;SDS011;27385;51.096;17.190;2022-08-21T05:24:08;4.00;;;0.90;;
41705;SDS011;27385;51.096;17.190;2022-08-21T05:26:40;3.00;;;1.00;;
41705;SDS011;27385;51.096;17.190;2022-08-21T05:29:13;4.70;;;0.90;;
41705;SDS011;27385;51.096;17.190;2022-08-21T05:31:45;2.80;;;0.80;;
41705;SDS011;27385;51.096;17.190;2022-08-21T05:34:20;2.80;;;0.80;;
41705;SDS011;27385;51.096;17.190;2022-08-21T05:36:54;4.70;;;0.90;;
41705;SDS011;27385;51.096;17.190;2022-08-21T05:39:25;3.10;;;1.00;;
41705;SDS011;27385;51.096;17.190;2022-08-21T05:41:57;3.30;;;0.80;;
41705;SDS011;27385;51.096;17.190;2022-08-21T05:44:29;5.00;;;0.90;;
41705;SDS011;27385;51.096;17.190;2022-08-21T05:47:04;3.90;;;0.80;;
41705;SDS011;27385;51.096;17.190;2022-08-21T05:49:37;6.30;;;1.00;;
41705;SDS011;27385;51.096;17.190;2022-08-21T05:52:09;4.00;;;0.80;;
41705;SDS011;27385;51.096;17.190;2022-08-21T05:54:41;2.00;;;0.70;;
41705;SDS011;27385;51.096;17.190;2022-08-21T05:57:12;2.40;;;0.70;;
41705;SDS011;27385;51.096;17.190;2022-08-21T05:59:44;2.60;;;0.70;;
41705;SDS011;27385;51.096;17.190;2022-08-21T06:02:17;5.00;;;0.80;;
41705;SDS011;27385;51.096;17.190;2022-08-21T06:04:49;4.80;;;0.60;;
41705;SDS011;27385;51.096;17.190;2022-08-21T06:07:21;2.70;;;0.70;;
41705;SDS011;27385;51.096;17.190;2022-08-21T06:09:52;1.90;;;0.60;;
41705;SDS011;27385;51.096;17.190;2022-08-21T06:12:24;5.30;;;0.70;;
41705;SDS011;27385;51.096;17.190;2022-08-21T06:14:56;2.10;;;0.50;;
41705;SDS011;27385;51.096;17.190;2022-08-21T06:17:27;3.40;;;0.60;;
41705;SDS011;27385;51.096;17.190;2022-08-21T06:20:04;2.20;;;0.60;;
41705;SDS011;27385;51.096;17.190;2022-08-21T06:22:37;2.50;;;0.60;;
41705;SDS011;27385;51.096;17.190;2022-08-21T06:25:09;2.60;;;0.70;;
41705;SDS011;27385;51.096;17.190;2022-08-21T06:27:40;1.90;;;0.60;;
41705;SDS011;27385;51.096;17.190;2022-08-21T06:30:13;3.50;;;0.70;;
41705;SDS011;27385;51.096;17.190;2022-08-21T06:32:44;2.70;;;0.70;;
41705;SDS011;27385;51.096;17.190;2022-08-21T06:35:17;2.80;;;0.60;;
41705;SDS011;27385;51.096;17.190;2022-08-21T06:37:49;3.00;;;0.80;;
41705;SDS011;27385;51.096;17.190;2022-08-21T06:40:21;2.20;;;0.60;;
41705;SDS011;27385;51.096;17.190;2022-08-21T06:42:53;2.80;;;0.60;;
41705;SDS011;27385;51.096;17.190;2022-08-21T06:45:25;3.00;;;0.60;;
41705;SDS011;27385;51.096;17.190;2022-08-21T06:47:57;1.90;;;0.60;;
41705;SDS011;27385;51.096;17.190;2022-08-21T06:50:29;2.60;;;0.60;;
41705;SDS011;27385;51.096;17.190;2022-08-21T06:53:02;2.60;;;0.40;;
41705;SDS011;27385;51.096;17.190;2022-08-21T06:55:34;1.60;;;0.50;;
41705;SDS011;27385;51.096;17.190;2022-08-21T06:58:07;1.80;;;0.50;;
41705;SDS011;27385;51.096;17.190;2022-08-21T07:00:41;2.00;;;0.40;;
41705;SDS011;27385;51.096;17.190;2022-08-21T07:03:19;2.70;;;0.80;;
41705;SDS011;27385;51.096;17.190;2022-08-21T07:05:53;2.30;;;0.60;;
41705;SDS011;27385;51.096;17.190;2022-08-21T07:08:26;2.50;;;0.60;;
41705;SDS011;27385;51.096;17.190;2022-08-21T07:10:59;4.80;;;0.80;;
41705;SDS011;27385;51.096;17.190;2022-08-21T07:13:33;4.90;;;0.90;;
41705;SDS011;27385;51.096;17.190;2022-08-21T07:16:06;5.10;;;0.90;;
41705;SDS011;27385;51.096;17.190;2022-08-21T07:18:37;5.60;;;1.50;;
41705;SDS011;27385;51.096;17.190;2022-08-21T07:21:10;5.60;;;1.10;;
41705;SDS011;27385;51.096;17.190;2022-08-21T07:23:44;5.40;;;1.30;;
41705;SDS011;27385;51.096;17.190;2022-08-21T07:26:18;6.00;;;1.40;;
41705;SDS011;27385;51.096;17.190;2022-08-21T07:28:51;4.40;;;1.20;;
41705;SDS011;27385;51.096;17.190;2022-08-21T07:31:24;7.40;;;1.30;;
41705;SDS011;27385;51.096;17.190;2022-08-21T07:33:56;5.00;;;1.20;;
41705;SDS011;27385;51.096;17.190;2022-08-21T07:36:30;5.60;;;1.70;;
41705;SDS011;27385;51.096;17.190;2022-08-21T07:39:02;11.10;;;1.80;;
41705;SDS011;27385;51.096;17.190;2022-08-21T07:41:34;6.00;;;1.40;;
41705;SDS011;27385;51.096;17.190;2022-08-21T07:44:05;8.00;;;1.50;;
41705;SDS011;27385;51.096;17.190;2022-08-21T07:46:37;4.80;;;1.10;;
41705;SDS011;27385;51.096;17.190;2022-08-21T07:49:09;6.40;;;1.30;;
41705;SDS011;27385;51.096;17.190;2022-08-21T07:51:41;6.50;;;1.30;;
41705;SDS011;27385;51.096;17.190;2022-08-21T07:54:14;5.60;;;1.50;;
41705;SDS011;27385;51.096;17.190;2022-08-21T07:56:46;4.80;;;1.20;;
41705;SDS011;27385;51.096;17.190;2022-08-21T07:59:18;6.40;;;1.30;;
41705;SDS011;27385;51.096;17.190;2022-08-21T08:01:52;8.90;;;1.50;;
41705;SDS011;27385;51.096;17.190;2022-08-21T08:04:26;7.40;;;1.40;;
41705;SDS011;27385;51.096;17.190;2022-08-21T08:06:57;10.00;;;1.50;;
41705;SDS011;27385;51.096;17.190;2022-08-21T08:09:30;8.10;;;1.60;;
41705;SDS011;27385;51.096;17.190;2022-08-21T08:12:02;6.70;;;1.40;;
41705;SDS011;27385;51.096;17.190;2022-08-21T08:14:35;7.00;;;1.20;;
41705;SDS011;27385;51.096;17.190;2022-08-21T08:17:07;8.80;;;1.60;;
41705;SDS011;27385;51.096;17.190;2022-08-21T08:19:41;7.60;;;1.20;;
41705;SDS011;27385;51.096;17.190;2022-08-21T08:22:15;6.10;;;1.70;;
41705;SDS011;27385;51.096;17.190;2022-08-21T08:24:48;6.00;;;1.20;;
41705;SDS011;27385;51.096;17.190;2022-08-21T08:27:21;4.70;;;1.10;;
41705;SDS011;27385;51.096;17.190;2022-08-21T08:29:54;6.60;;;1.40;;
41705;SDS011;27385;51.096;17.190;2022-08-21T08:32:28;7.20;;;1.20;;
41705;SDS011;27385;51.096;17.190;2022-08-21T08:35:00;3.90;;;1.00;;
41705;SDS011;27385;51.096;17.190;2022-08-21T08:37:35;6.00;;;1.00;;
41705;SDS011;27385;51.096;17.190;2022-08-21T08:40:09;7.30;;;1.20;;
41705;SDS011;27385;51.096;17.190;2022-08-21T08:42:42;4.90;;;1.20;;
41705;SDS011;27385;51.096;17.190;2022-08-21T08:45:17;6.90;;;1.40;;
41705;SDS011;27385;51.096;17.190;2022-08-21T08:47:52;3.70;;;1.00;;
41705;SDS011;27385;51.096;17.190;2022-08-21T08:50:30;7.60;;;1.10;;
41705;SDS011;27385;51.096;17.190;2022-08-21T08:53:10;6.20;;;1.30;;
41705;SDS011;27385;51.096;17.190;2022-08-21T08:55:46;7.90;;;1.30;;
41705;SDS011;27385;51.096;17.190;2022-08-21T08:58:22;6.00;;;1.70;;
41705;SDS011;27385;51.096;17.190;2022-08-21T09:00:58;5.80;;;1.50;;
41705;SDS011;27385;51.096;17.190;2022-08-21T09:03:31;5.80;;;1.00;;
41705;SDS011;27385;51.096;17.190;2022-08-21T09:06:06;4.00;;;1.10;;
41705;SDS011;27385;51.096;17.190;2022-08-21T09:08:51;3.30;;;0.80;;
41705;SDS011;27385;51.096;17.190;2022-08-21T09:11:34;4.30;;;0.90;;
41705;SDS011;27385;51.096;17.190;2022-08-21T09:14:13;3.20;;;0.80;;
41705;SDS011;27385;51.096;17.190;2022-08-21T09:16:54;3.80;;;0.90;;
41705;SDS011;27385;51.096;17.190;2022-08-21T09:19:39;4.00;;;1.00;;
41705;SDS011;27385;51.096;17.190;2022-08-21T09:22:23;2.90;;;0.80;;
41705;SDS011;27385;51.096;17.190;2022-08-21T09:25:10;4.00;;;1.00;;
41705;SDS011;27385;51.096;17.190;2022-08-21T09:27:48;4.10;;;0.90;;
41705;SDS011;27385;51.096;17.190;2022-08-21T09:30:23;3.60;;;0.90;;
41705;SDS011;27385;51.096;17.190;2022-08-21T09:32:59;3.10;;;0.80;;
41705;SDS011;27385;51.096;17.190;2022-08-21T09:35:31;3.20;;;1.00;;
41705;SDS011;27385;51.096;17.190;2022-08-21T09:38:06;3.30;;;0.80;;
41705;SDS011;27385;51.096;17.190;2022-08-21T09:40:41;3.60;;;0.80;;
41705;SDS011;27385;51.096;17.190;2022-08-21T09:43:17;4.20;;;1.00;;
41705;SDS011;27385;51.096;17.190;2022-08-21T09:46:05;4.90;;;0.90;;
41705;SDS011;27385;51.096;17.190;2022-08-21T09:48:43;3.60;;;0.80;;
41705;SDS011;27385;51.096;17.190;2022-08-21T09:51:17;3.70;;;0.90;;
41705;SDS011;27385;51.096;17.190;2022-08-21T09:53:53;4.80;;;1.00;;
41705;SDS011;27385;51.096;17.190;2022-08-21T09:56:30;4.00;;;0.90;;
41705;SDS011;27385;51.096;17.190;2022-08-21T09:59:24;2.80;;;0.80;;
41705;SDS011;27385;51.096;17.190;2022-08-21T10:02:01;2.40;;;0.70;;
41705;SDS011;27385;51.096;17.190;2022-08-21T10:04:51;3.50;;;0.80;;
41705;SDS011;27385;51.096;17.190;2022-08-21T10:07:24;4.80;;;1.10;;
41705;SDS011;27385;51.096;17.190;2022-08-21T10:09:59;5.00;;;1.00;;
41705;SDS011;27385;51.096;17.190;2022-08-21T10:12:41;4.90;;;1.20;;
41705;SDS011;27385;51.096;17.190;2022-08-21T10:15:19;3.80;;;0.70;;
41705;SDS011;27385;51.096;17.190;2022-08-21T10:18:03;6.30;;;1.30;;
41705;SDS011;27385;51.096;17.190;2022-08-21T10:20:43;3.70;;;1.10;;
41705;SDS011;27385;51.096;17.190;2022-08-21T10:23:26;4.60;;;1.10;;
41705;SDS011;27385;51.096;17.190;2022-08-21T10:26:11;4.40;;;1.20;;
41705;SDS011;27385;51.096;17.190;2022-08-21T10:28:57;4.10;;;1.00;;
41705;SDS011;27385;51.096;17.190;2022-08-21T10:31:40;4.20;;;1.00;;
41705;SDS011;27385;51.096;17.190;2022-08-21T10:34:27;9.80;;;1.40;;
41705;SDS011;27385;51.096;17.190;2022-08-21T10:37:11;7.10;;;1.20;;
41705;SDS011;27385;51.096;17.190;2022-08-21T10:40:00;4.30;;;0.90;;
41705;SDS011;27385;51.096;17.190;2022-08-21T10:42:38;3.50;;;0.80;;
41705;SDS011;27385;51.096;17.190;2022-08-21T10:45:31;2.90;;;0.70;;
41705;SDS011;27385;51.096;17.190;2022-08-21T10:48:14;4.50;;;0.80;;
41705;SDS011;27385;51.096;17.190;2022-08-21T10:50:54;7.40;;;1.00;;
41705;SDS011;27385;51.096;17.190;2022-08-21T10:56:26;3.60;;;0.90;;
41705;SDS011;27385;51.096;17.190;2022-08-21T10:59:04;3.30;;;1.00;;
41705;SDS011;27385;51.096;17.190;2022-08-21T11:01:50;2.20;;;0.70;;
41705;SDS011;27385;51.096;17.190;2022-08-21T11:04:48;4.80;;;1.00;;
41705;SDS011;27385;51.096;17.190;2022-08-21T11:07:29;6.20;;;0.90;;
41705;SDS011;27385;51.096;17.190;2022-08-21T11:10:15;5.70;;;1.10;;
41705;SDS011;27385;51.096;17.190;2022-08-21T11:12:52;4.10;;;1.00;;
41705;SDS011;27385;51.096;17.190;2022-08-21T11:15:33;4.20;;;0.90;;
41705;SDS011;27385;51.096;17.190;2022-08-21T11:18:17;3.90;;;1.10;;
41705;SDS011;27385;51.096;17.190;2022-08-21T11:21:01;9.50;;;1.30;;
41705;SDS011;27385;51.096;17.190;2022-08-21T11:23:42;3.20;;;0.80;;
41705;SDS011;27385;51.096;17.190;2022-08-21T11:26:22;4.80;;;1.00;;
41705;SDS011;27385;51.096;17.190;2022-08-21T11:29:04;4.50;;;0.90;;
41705;SDS011;27385;51.096;17.190;2022-08-21T11:31:48;4.90;;;0.90;;
41705;SDS011;27385;51.096;17.190;2022-08-21T11:34:37;6.50;;;1.20;;
41705;SDS011;27385;51.096;17.190;2022-08-21T11:37:20;4.10;;;1.00;;
41705;SDS011;27385;51.096;17.190;2022-08-21T11:40:04;5.70;;;1.20;;
41705;SDS011;27385;51.096;17.190;2022-08-21T11:42:45;6.50;;;1.00;;
41705;SDS011;27385;51.096;17.190;2022-08-21T11:45:30;6.30;;;1.20;;
41705;SDS011;27385;51.096;17.190;2022-08-21T11:48:11;6.10;;;1.20;;
41705;SDS011;27385;51.096;17.190;2022-08-21T11:50:54;8.70;;;1.20;;
41705;SDS011;27385;51.096;17.190;2022-08-21T11:53:28;7.10;;;1.20;;
41705;SDS011;27385;51.096;17.190;2022-08-21T11:56:08;8.30;;;1.10;;
41705;SDS011;27385;51.096;17.190;2022-08-21T11:58:48;7.70;;;1.10;;
41705;SDS011;27385;51.096;17.190;2022-08-21T12:01:25;14.60;;;1.40;;
41705;SDS011;27385;51.096;17.190;2022-08-21T12:04:02;4.40;;;1.10;;
41705;SDS011;27385;51.096;17.190;2022-08-21T12:06:38;7.90;;;1.20;;
41705;SDS011;27385;51.096;17.190;2022-08-21T12:09:23;8.90;;;1.50;;
41705;SDS011;27385;51.096;17.190;2022-08-21T12:12:04;7.20;;;1.20;;
41705;SDS011;27385;51.096;17.190;2022-08-21T12:14:44;9.60;;;1.80;;
41705;SDS011;27385;51.096;17.190;2022-08-21T12:17:19;5.10;;;1.20;;
41705;SDS011;27385;51.096;17.190;2022-08-21T12:19:59;9.90;;;1.40;;
41705;SDS011;27385;51.096;17.190;2022-08-21T12:22:47;8.00;;;1.80;;
41705;SDS011;27385;51.096;17.190;2022-08-21T12:25:23;3.70;;;1.10;;
41705;SDS011;27385;51.096;17.190;2022-08-21T12:28:06;4.00;;;1.00;;
41705;SDS011;27385;51.096;17.190;2022-08-21T12:30:42;7.50;;;1.20;;
41705;SDS011;27385;51.096;17.190;2022-08-21T12:33:21;4.80;;;1.20;;
41705;SDS011;27385;51.096;17.190;2022-08-21T12:36:03;5.00;;;1.20;;
41705;SDS011;27385;51.096;17.190;2022-08-21T12:38:42;8.30;;;1.10;;
41705;SDS011;27385;51.096;17.190;2022-08-21T12:41:19;6.30;;;1.30;;
41705;SDS011;27385;51.096;17.190;2022-08-21T12:43:58;7.80;;;1.20;;
41705;SDS011;27385;51.096;17.190;2022-08-21T12:46:36;6.50;;;1.70;;
41705;SDS011;27385;51.096;17.190;2022-08-21T12:49:15;5.40;;;1.40;;
41705;SDS011;27385;51.096;17.190;2022-08-21T12:51:54;5.80;;;1.30;;
41705;SDS011;27385;51.096;17.190;2022-08-21T12:54:36;7.40;;;1.70;;
41705;SDS011;27385;51.096;17.190;2022-08-21T12:57:18;6.60;;;1.50;;
41705;SDS011;27385;51.096;17.190;2022-08-21T12:59:57;8.90;;;1.50;;
41705;SDS011;27385;51.096;17.190;2022-08-21T13:02:32;8.60;;;1.40;;
41705;SDS011;27385;51.096;17.190;2022-08-21T13:05:11;5.60;;;1.30;;
41705;SDS011;27385;51.096;17.190;2022-08-21T13:07:46;6.50;;;1.40;;
41705;SDS011;27385;51.096;17.190;2022-08-21T13:10:22;8.80;;;1.80;;
41705;SDS011;27385;51.096;17.190;2022-08-21T13:12:57;5.80;;;1.60;;
41705;SDS011;27385;51.096;17.190;2022-08-21T13:15:32;7.10;;;1.50;;
41705;SDS011;27385;51.096;17.190;2022-08-21T13:18:08;12.00;;;1.70;;
41705;SDS011;27385;51.096;17.190;2022-08-21T13:20:50;10.30;;;1.60;;
41705;SDS011;27385;51.096;17.190;2022-08-21T13:23:32;7.00;;;1.60;;
41705;SDS011;27385;51.096;17.190;2022-08-21T13:26:13;7.00;;;1.30;;
41705;SDS011;27385;51.096;17.190;2022-08-21T13:28:47;6.40;;;1.60;;
41705;SDS011;27385;51.096;17.190;2022-08-21T13:31:24;9.80;;;1.70;;
41705;SDS011;27385;51.096;17.190;2022-08-21T13:34:01;8.80;;;1.60;;
41705;SDS011;27385;51.096;17.190;2022-08-21T13:36:34;7.90;;;1.60;;
41705;SDS011;27385;51.096;17.190;2022-08-21T13:39:10;9.80;;;1.80;;
41705;SDS011;27385;51.096;17.190;2022-08-21T13:41:48;9.00;;;2.50;;
41705;SDS011;27385;51.096;17.190;2022-08-21T13:44:31;6.10;;;1.60;;
41705;SDS011;27385;51.096;17.190;2022-08-21T13:47:05;5.60;;;1.30;;
41705;SDS011;27385;51.096;17.190;2022-08-21T13:49:40;10.90;;;1.60;;
41705;SDS011;27385;51.096;17.190;2022-08-21T13:52:15;9.30;;;1.60;;
41705;SDS011;27385;51.096;17.190;2022-08-21T13:54:54;3.90;;;1.10;;
41705;SDS011;27385;51.096;17.190;2022-08-21T13:57:28;5.80;;;1.30;;
41705;SDS011;27385;51.096;17.190;2022-08-21T14:00:14;7.50;;;1.50;;
41705;SDS011;27385;51.096;17.190;2022-08-21T14:02:50;6.90;;;1.60;;
41705;SDS011;27385;51.096;17.190;2022-08-21T14:05:25;7.40;;;1.40;;
41705;SDS011;27385;51.096;17.190;2022-08-21T14:08:02;9.30;;;1.30;;
41705;SDS011;27385;51.096;17.190;2022-08-21T14:10:41;8.90;;;1.50;;
41705;SDS011;27385;51.096;17.190;2022-08-21T14:13:24;6.60;;;1.50;;
41705;SDS011;27385;51.096;17.190;2022-08-21T14:16:12;10.60;;;3.30;;
41705;SDS011;27385;51.096;17.190;2022-08-21T14:18:48;9.40;;;2.30;;
41705;SDS011;27385;51.096;17.190;2022-08-21T14:21:27;8.80;;;3.00;;
41705;SDS011;27385;51.096;17.190;2022-08-21T14:24:07;5.00;;;1.40;;
41705;SDS011;27385;51.096;17.190;2022-08-21T14:26:46;8.00;;;2.20;;
41705;SDS011;27385;51.096;17.190;2022-08-21T14:29:21;8.70;;;1.90;;
41705;SDS011;27385;51.096;17.190;2022-08-21T14:31:56;7.40;;;1.90;;
41705;SDS011;27385;51.096;17.190;2022-08-21T14:34:30;8.60;;;2.30;;
41705;SDS011;27385;51.096;17.190;2022-08-21T14:37:02;11.50;;;2.70;;
41705;SDS011;27385;51.096;17.190;2022-08-21T14:39:34;10.40;;;2.00;;
41705;SDS011;27385;51.096;17.190;2022-08-21T14:42:06;7.40;;;2.00;;
41705;SDS011;27385;51.096;17.190;2022-08-21T14:44:38;10.70;;;2.80;;
41705;SDS011;27385;51.096;17.190;2022-08-21T14:47:11;7.30;;;2.10;;
41705;SDS011;27385;51.096;17.190;2022-08-21T14:49:43;5.50;;;1.40;;
41705;SDS011;27385;51.096;17.190;2022-08-21T14:52:16;8.00;;;1.50;;
41705;SDS011;27385;51.096;17.190;2022-08-21T14:54:48;7.40;;;1.80;;
41705;SDS011;27385;51.096;17.190;2022-08-21T14:57:21;15.90;;;2.30;;
41705;SDS011;27385;51.096;17.190;2022-08-21T14:59:54;6.10;;;1.50;;
41705;SDS011;27385;51.096;17.190;2022-08-21T15:02:28;6.80;;;1.80;;
41705;SDS011;27385;51.096;17.190;2022-08-21T15:05:01;9.20;;;2.10;;
41705;SDS011;27385;51.096;17.190;2022-08-21T15:07:35;8.10;;;2.00;;
41705;SDS011;27385;51.096;17.190;2022-08-21T15:10:08;5.90;;;1.60;;
41705;SDS011;27385;51.096;17.190;2022-08-21T15:12:41;10.60;;;1.90;;
41705;SDS011;27385;51.096;17.190;2022-08-21T15:15:13;9.60;;;2.00;;
41705;SDS011;27385;51.096;17.190;2022-08-21T15:17:45;7.20;;;1.70;;
41705;SDS011;27385;51.096;17.190;2022-08-21T15:20:17;10.40;;;2.00;;
41705;SDS011;27385;51.096;17.190;2022-08-21T15:22:51;9.00;;;1.70;;